Pagina principale
METAR-TAF:

METAR-TAF

Aeroporti :

Biserta, Tunisia

latitudine: 37-15N, longitudine: 009-48E, altezza: 5 m

Osservazione

Il bollettino è stato emesso 29 minuti fa, alle 16:00 UTC
Vento 10 kt da ovest/nord-ovest
Temperature 38°C
Umidità 17%
Pressione 1010 hPa
Visibilità 10 km o più
nessuna nube inferiore a 1500 m e nessun cumulonembo

METAR: DTTB 131600Z 30010KT CAVOK 38/09 Q1010 RMK SIROCCO

Ora: 17:29 (16:29 UTC)

Previsione

Il bollettino è stato emesso 1 ora e 29 minuti fa, alle 15:00 UTC
Previsione valida dal 13 alle 16 UTC al 14 alle 01 UTC
Vento 10 kt da ovest/nord-ovest
Visibilità 10 km o più
nessuna nube inferiore a 1500 m e nessun cumulonembo

TAF: DTTB 131500Z 1316/1401 30010KT CAVOK

Osservazioni e previsioni meteorologiche di più di 4000 aeroporti (messaggi METAR e TAF).

Le stazioni disponibili sono rappresentate dai dischi gialli e rossi sulla carta.

Puntare il mouse per vedere il nome della stazione.

Clicca sopra per visualizzare le osservazioni e previsioni meteorologiche.

Per cambiare la mappa : fare clic sui pulsanti verdi con una croce nera per ingrandire, il pulsante verde con un trattino per diminuire, o sulla freccia verde per le mappe adiacenti.


METAR-TAF: